createdAt,value
2019-04-16T00:01:49.093Z,10.02
2019-04-16T00:05:04.625Z,9.94
2019-04-16T00:08:27.119Z,10.03
2019-04-16T00:11:28.628Z,9.65
2019-04-16T00:14:35.319Z,9.62
2019-04-16T00:17:38.727Z,9.37
2019-04-16T00:21:09.859Z,9.52
2019-04-16T00:24:22.140Z,9.88
2019-04-16T00:27:28.269Z,9.47
2019-04-16T00:30:30.378Z,9.92
2019-04-16T00:33:33.488Z,9.77
2019-04-16T00:36:36.405Z,9.89
2019-04-16T00:39:39.353Z,9.71
2019-04-16T00:42:42.584Z,9.57
2019-04-16T00:45:45.542Z,9.78
2019-04-16T00:48:48.493Z,9.86
2019-04-16T00:51:52.040Z,9.64
2019-04-16T00:54:55.378Z,9.81
2019-04-16T00:57:58.589Z,9.44
2019-04-16T01:01:02.970Z,9.54
2019-04-16T01:04:06.138Z,9.73
2019-04-16T01:07:09.508Z,9.61
2019-04-16T01:10:12.857Z,9.54
2019-04-16T01:13:16.300Z,9.82
2019-04-16T01:16:19.252Z,9.88
2019-04-16T01:19:22.261Z,9.70
2019-04-16T01:22:25.594Z,9.49
2019-04-16T01:25:28.518Z,9.66
2019-04-16T01:28:33.936Z,9.46
2019-04-16T01:32:12.170Z,9.38
2019-04-16T01:35:29.609Z,9.47
2019-04-16T01:39:14.840Z,8.96
2019-04-16T01:42:02.796Z,8.78
2019-04-16T01:45:06.716Z,8.56
2019-04-16T01:48:09.851Z,8.84
2019-04-16T01:51:15.408Z,8.90
2019-04-16T01:54:22.538Z,8.83
2019-04-16T01:57:23.123Z,9.08
2019-04-16T02:00:26.388Z,8.90
2019-04-16T02:03:29.332Z,9.05
2019-04-16T02:06:32.966Z,8.78
2019-04-16T02:09:36.301Z,8.65
2019-04-16T02:12:43.668Z,8.22
2019-04-16T02:15:44.412Z,8.25
2019-04-16T02:18:47.359Z,8.01
2019-04-16T02:21:50.307Z,8.29
2019-04-16T02:24:54.716Z,8.02
2019-04-16T02:27:57.884Z,8.21
2019-04-16T02:31:01.086Z,7.86
2019-04-16T02:34:04.022Z,8.43
2019-04-16T02:37:07.294Z,7.99
2019-04-16T02:40:16.903Z,8.13
2019-04-16T02:43:15.884Z,8.02
2019-04-16T02:46:18.825Z,7.71
2019-04-16T02:49:24.537Z,7.59
2019-04-16T02:52:51.215Z,7.60
2019-04-16T02:56:18.770Z,7.73
2019-04-16T02:59:23.243Z,7.81
2019-04-16T03:02:53.619Z,7.64
2019-04-16T03:05:55.132Z,7.67
2019-04-16T03:08:58.506Z,7.84
2019-04-16T03:12:01.450Z,7.79
2019-04-16T03:15:05.559Z,7.96
2019-04-16T03:18:14.134Z,7.87
2019-04-16T03:21:14.042Z,7.61
2019-04-16T03:24:17.284Z,7.31
2019-04-16T03:27:22.896Z,7.22
2019-04-16T03:30:25.960Z,7.99
2019-04-16T03:33:29.460Z,7.79
2019-04-16T03:36:32.388Z,7.42
2019-04-16T03:39:35.660Z,7.57
2019-04-16T03:42:38.921Z,7.19
2019-04-16T03:45:41.881Z,7.47
2019-04-16T03:48:46.517Z,7.19
2019-04-16T03:51:49.445Z,7.01
2019-04-16T03:54:54.120Z,7.35
2019-04-16T03:57:57.853Z,7.53
2019-04-16T04:01:01.064Z,7.24
2019-04-16T04:04:04.551Z,7.15
2019-04-16T04:07:08.763Z,7.07
2019-04-16T04:10:12.572Z,7.35
2019-04-16T04:13:18.592Z,7.41
2019-04-16T04:16:21.123Z,7.14
2019-04-16T04:19:24.697Z,7.20
2019-04-16T04:22:27.643Z,7.11
2019-04-16T04:25:42.866Z,7.30
2019-04-16T04:28:48.639Z,7.11
2019-04-16T04:31:53.312Z,7.18
2019-04-16T04:34:56.237Z,7.07
2019-04-16T04:38:00.745Z,6.97
2019-04-16T04:41:04.964Z,6.94
2019-04-16T04:44:08.574Z,6.95
2019-04-16T04:47:11.983Z,6.88
2019-04-16T04:50:15.384Z,6.81
2019-04-16T04:53:19.922Z,6.66
2019-04-16T04:56:27.740Z,7.12
2019-04-16T04:59:30.028Z,6.86
2019-04-16T05:02:33.055Z,6.92
2019-04-16T05:05:43.713Z,6.83
2019-04-16T05:08:47.031Z,6.82
2019-04-16T05:11:50.034Z,6.64
2019-04-16T05:14:57.367Z,6.67
2019-04-16T05:17:58.470Z,6.79
2019-04-16T05:21:02.072Z,6.83
2019-04-16T05:24:04.984Z,6.91
2019-04-16T05:27:08.506Z,6.77
2019-04-16T05:30:13.243Z,6.80
2019-04-16T05:33:16.798Z,6.76
2019-04-16T05:36:21.367Z,6.98
2019-04-16T05:39:28.517Z,6.95
2019-04-16T05:42:32.357Z,6.83
2019-04-16T05:45:37.671Z,7.11
2019-04-16T05:48:40.506Z,7.00
2019-04-16T05:51:43.787Z,7.04
2019-04-16T05:55:04.802Z,7.46
2019-04-16T05:58:08.045Z,7.17
2019-04-16T06:01:36.904Z,7.36
2019-04-16T06:04:40.940Z,7.55
2019-04-16T06:07:44.185Z,7.45
2019-04-16T06:10:51.078Z,7.60
2019-04-16T06:14:03.602Z,7.72
2019-04-16T06:17:25.798Z,7.88
2019-04-16T06:20:37.565Z,7.90
2019-04-16T06:24:09.864Z,8.03
2019-04-16T06:27:35.914Z,8.07
2019-04-16T06:31:10.121Z,8.05
2019-04-16T06:34:31.164Z,8.04
2019-04-16T06:37:40.126Z,8.03
2019-04-16T06:41:05.680Z,8.22
2019-04-16T06:44:15.524Z,8.34
2019-04-16T06:47:47.660Z,8.46
2019-04-16T06:51:11.691Z,8.46
2019-04-16T06:54:31.876Z,8.58
2019-04-16T06:58:12.538Z,8.66
2019-04-16T07:01:36.973Z,8.91
2019-04-16T07:04:51.382Z,8.77
2019-04-16T07:08:20.135Z,8.97
2019-04-16T07:11:23.971Z,9.01
2019-04-16T07:14:28.359Z,9.18
2019-04-16T07:17:33.665Z,9.25
2019-04-16T07:20:37.421Z,9.33
2019-04-16T07:23:40.452Z,9.47
2019-04-16T07:26:47.653Z,9.88
2019-04-16T07:29:52.117Z,10.07
2019-04-16T07:33:17.779Z,10.24
2019-04-16T07:36:31.291Z,10.45
2019-04-16T07:39:46.457Z,10.50
2019-04-16T07:42:58.959Z,10.83
2019-04-16T07:46:20.781Z,10.90
2019-04-16T07:49:43.700Z,11.06
2019-04-16T07:53:18.566Z,11.11
2019-04-16T07:56:24.435Z,11.15
2019-04-16T07:59:31.970Z,11.30
2019-04-16T08:02:33.660Z,11.37
2019-04-16T08:05:37.726Z,11.43
2019-04-16T08:08:42.777Z,11.54
2019-04-16T08:11:46.168Z,11.62
2019-04-16T08:14:49.998Z,11.73
2019-04-16T08:17:53.342Z,11.67
2019-04-16T08:21:02.153Z,11.71
2019-04-16T08:24:05.293Z,11.80
2019-04-16T08:27:10.412Z,11.92
2019-04-16T08:30:14.255Z,11.97
2019-04-16T08:33:17.256Z,12.03
2019-04-16T08:36:20.665Z,12.10
2019-04-16T08:39:23.702Z,12.12
2019-04-16T08:42:29.482Z,12.26
2019-04-16T08:45:31.868Z,12.24
2019-04-16T08:48:34.782Z,12.17
2019-04-16T08:51:38.318Z,12.26
2019-04-16T08:54:41.278Z,12.41
2019-04-16T08:57:46.775Z,12.51
2019-04-16T09:00:49.610Z,12.44
2019-04-16T09:03:52.539Z,12.62
2019-04-16T09:07:09.600Z,12.80
2019-04-16T09:10:10.122Z,12.90
2019-04-16T09:13:09.144Z,13.11
2019-04-16T09:16:12.140Z,13.40
2019-04-16T09:19:16.531Z,13.17
2019-04-16T09:22:20.841Z,13.42
2019-04-16T09:25:55.630Z,13.47
2019-04-16T09:29:16.939Z,13.75
2019-04-16T09:32:28.224Z,13.74
2019-04-16T09:35:56.620Z,13.84
2019-04-16T09:39:37.690Z,14.32
2019-04-16T09:42:41.086Z,14.24
2019-04-16T09:45:45.232Z,14.08
2019-04-16T09:48:50.142Z,14.17
2019-04-16T09:51:53.442Z,14.95
2019-04-16T09:54:57.107Z,14.73
2019-04-16T09:58:06.911Z,14.82
2019-04-16T10:01:11.027Z,15.19
2019-04-16T10:04:16.636Z,15.43
2019-04-16T10:07:19.884Z,15.32
2019-04-16T10:10:24.253Z,15.49
2019-04-16T10:13:31.805Z,15.55
2019-04-16T10:16:34.127Z,15.88
2019-04-16T10:19:37.139Z,16.23
2019-04-16T10:22:40.466Z,15.70
2019-04-16T10:25:43.891Z,16.05
2019-04-16T10:28:46.902Z,16.03
2019-04-16T10:31:50.854Z,16.23
2019-04-16T10:34:54.477Z,16.55
2019-04-16T10:38:01.345Z,16.10
2019-04-16T10:41:17.631Z,16.16
2019-04-16T10:44:40.287Z,16.56
2019-04-16T10:48:15.320Z,16.89
2019-04-16T10:51:50.466Z,16.45
2019-04-16T10:55:05.381Z,16.62
2019-04-16T10:58:44.132Z,16.78
2019-04-16T11:02:09.763Z,16.87
2019-04-16T11:05:24.528Z,17.07
2019-04-16T11:08:27.618Z,17.21
2019-04-16T11:11:31.053Z,17.11
2019-04-16T11:14:34.200Z,17.53
2019-04-16T11:17:38.140Z,18.09
2019-04-16T11:20:41.255Z,17.87
2019-04-16T11:23:47.602Z,18.02
2019-04-16T11:26:51.239Z,17.77
2019-04-16T11:29:54.392Z,18.18
2019-04-16T11:32:57.958Z,18.58
2019-04-16T11:36:00.873Z,18.48
2019-04-16T11:39:07.336Z,18.26
2019-04-16T11:42:10.683Z,18.51
2019-04-16T11:45:14.892Z,18.81
2019-04-16T11:48:18.248Z,18.67
2019-04-16T11:51:21.283Z,18.65
2019-04-16T11:54:24.485Z,19.15
2019-04-16T11:57:29.359Z,19.61
2019-04-16T12:00:41.274Z,19.20
2019-04-16T12:03:56.094Z,19.42
2019-04-16T12:07:20.653Z,20.18
2019-04-16T12:10:58.593Z,19.91
2019-04-16T12:14:42.586Z,19.80
2019-04-16T12:18:04.373Z,20.79
2019-04-16T12:25:04.675Z,20.82
2019-04-16T12:28:30.332Z,20.51
2019-04-16T12:31:53.050Z,20.12
2019-04-16T12:35:25.279Z,20.55
2019-04-16T12:38:35.232Z,20.71
2019-04-16T12:41:51.721Z,20.64
2019-04-16T12:45:13.083Z,21.45
2019-04-16T12:48:36.615Z,20.76
2019-04-16T12:52:08.526Z,20.38
2019-04-16T12:55:32.465Z,21.26
2019-04-16T12:59:02.140Z,21.67
2019-04-16T13:02:20.112Z,21.78
2019-04-16T13:05:29.042Z,21.44
2019-04-16T13:08:57.926Z,21.55
2019-04-16T13:12:19.805Z,21.77
2019-04-16T13:15:34.947Z,21.63
2019-04-16T13:18:57.496Z,21.43
2019-04-16T13:22:01.019Z,22.01
2019-04-16T13:25:33.839Z,21.85
2019-04-16T13:28:36.775Z,22.28
2019-04-16T13:31:40.006Z,22.18
2019-04-16T13:34:43.248Z,22.53
2019-04-16T13:37:46.468Z,22.16
2019-04-16T13:40:50.208Z,22.56
2019-04-16T13:43:58.866Z,22.45
2019-04-16T13:47:03.811Z,21.71
2019-04-16T13:50:15.905Z,21.96
2019-04-16T13:53:41.975Z,22.15
2019-04-16T13:56:51.608Z,22.01
2019-04-16T14:00:08.777Z,21.46
2019-04-16T14:03:14.058Z,21.93
2019-04-16T14:06:17.039Z,21.57
2019-04-16T14:09:19.987Z,22.40
2019-04-16T14:12:40.799Z,21.36
2019-04-16T14:15:32.260Z,22.28
2019-04-16T14:18:35.792Z,22.18
2019-04-16T14:21:39.087Z,22.15
2019-04-16T14:24:42.389Z,22.33
2019-04-16T14:27:45.418Z,21.73
2019-04-16T14:30:50.008Z,21.10
2019-04-16T14:34:07.593Z,20.79
2019-04-16T14:37:10.624Z,20.93
2019-04-16T14:40:18.270Z,21.46
2019-04-16T14:43:29.228Z,21.41
2019-04-16T14:46:31.470Z,21.33
2019-04-16T14:49:34.439Z,21.59
2019-04-16T14:52:37.388Z,21.09
2019-04-16T14:56:01.201Z,21.35
2019-04-16T14:59:34.104Z,21.11
2019-04-16T15:02:41.774Z,21.28
2019-04-16T15:05:54.471Z,21.01
2019-04-16T15:09:09.917Z,20.61
2019-04-16T15:12:41.830Z,20.88
2019-04-16T15:16:10.747Z,20.53
2019-04-16T15:19:27.628Z,20.33
2019-04-16T15:22:40.397Z,19.99
2019-04-16T15:26:13.037Z,20.02
2019-04-16T15:29:23.462Z,20.25
2019-04-16T15:32:48.171Z,20.16
2019-04-16T15:35:57.540Z,19.82
2019-04-16T15:39:06.474Z,20.24
2019-04-16T15:42:49.040Z,20.18
2019-04-16T15:46:26.964Z,19.79
2019-04-16T15:49:55.664Z,19.46
2019-04-16T15:53:03.282Z,19.23
2019-04-16T15:56:10.766Z,19.38
2019-04-16T15:59:33.374Z,19.25
2019-04-16T16:03:05.740Z,19.00
2019-04-16T16:06:12.157Z,19.23
2019-04-16T16:09:22.530Z,19.29
2019-04-16T16:12:27.540Z,19.25
2019-04-16T16:15:30.504Z,19.28
2019-04-16T16:18:35.745Z,19.29
2019-04-16T16:21:38.409Z,19.04
2019-04-16T16:24:42.336Z,19.12
2019-04-16T16:27:47.206Z,18.97
2019-04-16T16:30:50.342Z,19.14
2019-04-16T16:33:53.677Z,19.02
2019-04-16T16:36:57.097Z,18.82
2019-04-16T16:40:00.059Z,18.83
2019-04-16T16:43:06.792Z,18.86
2019-04-16T16:46:30.645Z,18.79
2019-04-16T16:49:33.965Z,18.69
2019-04-16T16:53:05.901Z,18.64
2019-04-16T16:56:15.047Z,18.51
2019-04-16T16:59:34.068Z,18.48
2019-04-16T17:02:59.805Z,18.43
2019-04-16T17:06:04.472Z,18.47
2019-04-16T17:09:12.348Z,18.31
2019-04-16T17:12:15.651Z,18.23
2019-04-16T17:15:19.047Z,18.20
2019-04-16T17:18:22.003Z,18.17
2019-04-16T17:21:24.965Z,18.17
2019-04-16T17:24:27.908Z,18.19
2019-04-16T17:27:31.254Z,18.16
2019-04-16T17:30:34.356Z,18.05
2019-04-16T17:33:37.683Z,18.03
2019-04-16T17:36:40.620Z,17.84
2019-04-16T17:39:54.721Z,17.89
2019-04-16T17:43:02.328Z,17.76
2019-04-16T17:46:27.733Z,17.72
2019-04-16T17:49:35.441Z,17.63
2019-04-16T17:52:42.486Z,17.53
2019-04-16T17:55:50.332Z,17.43
2019-04-16T17:58:59.750Z,17.38
2019-04-16T18:02:21.342Z,17.20
2019-04-16T18:05:34.625Z,17.24
2019-04-16T18:09:03.930Z,17.18
2019-04-16T18:12:34.425Z,17.05
2019-04-16T18:16:06.120Z,17.00
2019-04-16T18:19:24.812Z,16.84
2019-04-16T18:22:44.895Z,16.93
2019-04-16T18:26:12.143Z,16.98
2019-04-16T18:29:46.987Z,17.19
2019-04-16T18:33:08.146Z,17.20
2019-04-16T18:36:30.432Z,17.23
2019-04-16T18:39:44.866Z,17.04
2019-04-16T18:43:19.544Z,17.01
2019-04-16T18:46:37.357Z,17.05
2019-04-16T18:49:40.778Z,17.05
2019-04-16T18:52:44.171Z,17.04
2019-04-16T18:55:47.380Z,17.10
2019-04-16T18:58:50.423Z,17.10
2019-04-16T19:01:58.767Z,16.84
2019-04-16T19:05:02.716Z,16.81
2019-04-16T19:08:08.283Z,16.82
2019-04-16T19:11:11.254Z,16.47
2019-04-16T19:14:14.279Z,16.65
2019-04-16T19:17:17.521Z,16.67
2019-04-16T19:20:20.562Z,16.72
2019-04-16T19:23:23.502Z,16.60
2019-04-16T19:26:30.086Z,16.55
2019-04-16T19:29:32.058Z,16.44
2019-04-16T19:32:35.341Z,16.44
2019-04-16T19:35:38.618Z,16.41
2019-04-16T19:38:41.532Z,16.53
2019-04-16T19:41:44.485Z,16.34
2019-04-16T19:44:47.752Z,16.32
2019-04-16T19:47:50.695Z,16.28
2019-04-16T19:50:53.662Z,16.36
2019-04-16T19:53:57.062Z,16.20
2019-04-16T19:57:00.341Z,16.41
2019-04-16T20:00:03.905Z,16.48
2019-04-16T20:03:08.448Z,16.36
2019-04-16T20:06:11.854Z,16.39
2019-04-16T20:09:14.886Z,16.31
2019-04-16T20:12:19.683Z,16.13
2019-04-16T20:15:22.866Z,15.98
2019-04-16T20:18:30.253Z,16.13
2019-04-16T20:21:33.346Z,15.86
2019-04-16T20:24:36.293Z,15.76
2019-04-16T20:27:40.751Z,15.76
2019-04-16T20:30:44.458Z,15.69
2019-04-16T20:33:48.588Z,15.50
2019-04-16T20:36:52.181Z,15.64
2019-04-16T20:39:56.707Z,15.66
2019-04-16T20:42:59.670Z,15.57
2019-04-16T20:46:02.984Z,15.48
2019-04-16T20:49:09.932Z,15.37
2019-04-16T20:52:11.422Z,15.45
2019-04-16T20:55:16.046Z,15.54
2019-04-16T20:58:19.500Z,15.46
2019-04-16T21:01:34.042Z,15.31
2019-04-16T21:04:27.345Z,15.65
2019-04-16T21:07:30.354Z,15.49
2019-04-16T21:10:35.669Z,15.54
2019-04-16T21:13:38.138Z,15.48
2019-04-16T21:16:41.064Z,15.41
2019-04-16T21:19:47.990Z,15.37
2019-04-16T21:50:47.173Z,14.89
2019-04-16T21:53:49.650Z,14.77
2019-04-16T21:56:54.801Z,14.77
2019-04-16T22:00:05.071Z,14.78
2019-04-16T22:03:59.880Z,14.94
2019-04-16T22:07:02.923Z,14.84
2019-04-16T22:10:06.301Z,14.75
2019-04-16T22:13:09.218Z,14.56
2019-04-16T22:16:12.924Z,14.78
2019-04-16T22:19:15.819Z,14.82
2019-04-16T22:22:19.352Z,14.86
2019-04-16T22:25:23.738Z,14.72
2019-04-16T22:28:28.520Z,14.66
2019-04-16T22:31:32.160Z,14.67
2019-04-16T22:34:35.062Z,14.55
2019-04-16T22:37:38.322Z,14.36
2019-04-16T22:40:54.922Z,14.38
2019-04-16T22:44:12.358Z,14.22
2019-04-16T22:47:23.061Z,14.00
2019-04-16T22:50:26.368Z,13.91
2019-04-16T22:53:29.290Z,14.09
2019-04-16T22:56:54.400Z,14.09
2019-04-16T22:59:57.324Z,13.97
2019-04-16T23:03:00.236Z,14.20
2019-04-16T23:06:05.451Z,14.29
2019-04-16T23:09:08.161Z,14.35
2019-04-16T23:12:12.938Z,14.27
2019-04-16T23:15:16.269Z,14.19
2019-04-16T23:18:19.358Z,14.27
2019-04-16T23:21:22.595Z,14.36
2019-04-16T23:46:06.884Z,14.32
2019-04-16T23:49:29.954Z,14.29
2019-04-16T23:52:35.652Z,14.37
2019-04-16T23:55:53.083Z,14.46
2019-04-16T23:59:02.563Z,14.20
